Brocket, North Dakota
Current Conditions -  °F | °C
As of 4:35 PM on Monday 22 Dec 2014 (Local Time) from KDVL Reporting Station
Overcast Overcast  
Wind Chill: 25°   Ceiling: 400
Heat Index: 34°   Visibility: 5mi
Dew Point: 32°   Wind: 12mph
Humidity: 93%   Direction: 40°NE
Pressure: 29.59"   Gusts: NA
Location:  48.21°N, 98.36°W
Report Text: KDVL 222235Z AUTO 04010KT 5SM OVC004 01/00 A2959 RMK AO1
Loading
Personal Weather Stations






























Interactive Weather Map New forecast layout! Learn more

10-Day Weather Forecast

Advertisements
Track Severe Weather on mobile